createdAt,value
2018-06-02T00:00:34.561Z,15.80
2018-06-02T00:03:03.415Z,15.80
2018-06-02T00:05:32.594Z,15.80
2018-06-02T00:08:01.498Z,15.80
2018-06-02T00:10:30.329Z,15.70
2018-06-02T00:12:59.452Z,15.70
2018-06-02T00:15:28.288Z,15.70
2018-06-02T00:17:57.362Z,15.70
2018-06-02T00:20:27.046Z,15.60
2018-06-02T00:22:55.881Z,15.60
2018-06-02T00:25:25.477Z,15.60
2018-06-02T00:27:54.694Z,15.60
2018-06-02T00:30:23.541Z,15.50
2018-06-02T00:32:52.361Z,15.50
2018-06-02T00:35:21.249Z,15.40
2018-06-02T00:37:50.107Z,15.40
2018-06-02T00:40:19.742Z,15.30
2018-06-02T00:42:48.620Z,15.20
2018-06-02T00:45:17.705Z,15.20
2018-06-02T00:47:47.307Z,15.10
2018-06-02T00:50:16.536Z,15.10
2018-06-02T00:52:45.833Z,15.10
2018-06-02T00:55:15.411Z,15.00
2018-06-02T00:57:44.711Z,15.00
2018-06-02T01:00:14.726Z,15.00
2018-06-02T01:02:43.959Z,14.90
2018-06-02T01:05:13.214Z,14.80
2018-06-02T01:07:42.061Z,14.80
2018-06-02T01:10:12.605Z,14.70
2018-06-02T01:12:42.245Z,14.70
2018-06-02T01:15:11.091Z,14.70
2018-06-02T01:17:39.926Z,14.70
2018-06-02T01:20:08.767Z,14.70
2018-06-02T01:22:37.662Z,14.70
2018-06-02T01:25:06.518Z,14.70
2018-06-02T01:27:35.412Z,14.70
2018-06-02T01:30:04.428Z,14.70
2018-06-02T01:32:33.274Z,14.70
2018-06-02T01:35:02.627Z,14.70
2018-06-02T01:37:31.460Z,14.70
2018-06-02T01:40:00.680Z,14.70
2018-06-02T01:42:30.315Z,14.60
2018-06-02T01:44:59.147Z,14.60
2018-06-02T01:47:27.976Z,14.60
2018-06-02T01:49:57.213Z,14.60
2018-06-02T01:52:26.052Z,14.60
2018-06-02T01:54:55.134Z,14.70
2018-06-02T01:57:23.974Z,14.60
2018-06-02T01:59:53.610Z,14.70
2018-06-02T02:02:22.449Z,14.70
2018-06-02T02:04:51.322Z,14.70
2018-06-02T02:07:20.937Z,14.80
2018-06-02T02:09:49.776Z,14.80
2018-06-02T02:12:19.478Z,14.80
2018-06-02T02:14:48.566Z,14.80
2018-06-02T02:17:17.760Z,14.90
2018-06-02T02:19:46.615Z,14.90
2018-06-02T02:22:15.525Z,14.90
2018-06-02T02:24:44.366Z,14.90
2018-06-02T02:27:13.990Z,14.90
2018-06-02T02:29:42.818Z,14.90
2018-06-02T02:32:11.634Z,14.90
2018-06-02T02:34:40.895Z,14.90
2018-06-02T02:37:09.743Z,14.90
2018-06-02T02:39:39.602Z,14.90
2018-06-02T02:42:08.452Z,14.80
2018-06-02T02:44:37.546Z,14.80
2018-06-02T02:47:06.371Z,14.80
2018-06-02T02:49:35.603Z,14.80
2018-06-02T02:52:04.442Z,14.70
2018-06-02T02:54:33.559Z,14.70
2018-06-02T02:57:03.202Z,14.70
2018-06-02T02:59:32.074Z,14.70
2018-06-02T03:02:01.694Z,14.60
2018-06-02T03:04:31.286Z,14.60
2018-06-02T03:07:01.266Z,14.60
2018-06-02T03:09:30.922Z,14.70
2018-06-02T03:12:00.536Z,14.60
2018-06-02T03:14:29.714Z,14.60
2018-06-02T03:16:58.548Z,14.70
2018-06-02T03:19:27.422Z,14.70
2018-06-02T03:21:56.664Z,14.70
2018-06-02T03:24:25.498Z,14.80
2018-06-02T03:26:54.342Z,14.80
2018-06-02T03:29:23.174Z,14.90
2018-06-02T03:31:52.004Z,14.90
2018-06-02T03:34:21.618Z,15.00
2018-06-02T03:36:50.506Z,15.00
2018-06-02T03:39:20.485Z,15.10
2018-06-02T03:41:49.354Z,15.10
2018-06-02T03:44:18.198Z,15.20
2018-06-02T03:46:47.414Z,15.20
2018-06-02T03:49:16.261Z,15.30
2018-06-02T03:51:45.082Z,15.40
2018-06-02T03:54:13.934Z,15.50
2018-06-02T03:56:42.794Z,15.50
2018-06-02T03:59:12.373Z,15.70
2018-06-02T04:01:41.230Z,15.60
2018-06-02T04:04:10.098Z,15.80
2018-06-02T04:06:39.707Z,15.90
2018-06-02T04:09:09.394Z,16.00
2018-06-02T04:11:38.651Z,15.90
2018-06-02T04:14:07.551Z,16.10
2018-06-02T04:16:36.441Z,16.10
2018-06-02T04:19:05.365Z,16.20
2018-06-02T04:21:34.260Z,16.30
2018-06-02T04:24:03.383Z,16.40
2018-06-02T04:26:32.274Z,16.50
2018-06-02T04:29:01.174Z,16.60
2018-06-02T04:31:30.443Z,16.60
2018-06-02T04:33:59.598Z,16.70
2018-06-02T04:36:29.237Z,16.90
2018-06-02T04:38:58.105Z,16.80
2018-06-02T04:41:28.066Z,17.00
2018-06-02T04:43:56.935Z,17.00
2018-06-02T04:46:27.298Z,17.10
2018-06-02T04:48:56.117Z,17.20
2018-06-02T04:51:25.073Z,17.20
2018-06-02T04:53:53.953Z,17.30
2018-06-02T04:56:22.765Z,17.40
2018-06-02T04:58:51.598Z,17.50
2018-06-02T05:01:20.682Z,17.60
2018-06-02T05:03:49.920Z,17.60
2018-06-02T05:06:19.565Z,17.80
2018-06-02T05:08:48.406Z,17.80
2018-06-02T05:11:17.198Z,17.90
2018-06-02T05:13:47.178Z,18.00
2018-06-02T05:16:16.062Z,18.00
2018-06-02T05:18:44.895Z,18.10
2018-06-02T05:21:14.498Z,18.20
2018-06-02T05:23:43.686Z,18.20
2018-06-02T05:26:12.543Z,18.40
2018-06-02T05:28:42.183Z,18.50
2018-06-02T05:31:11.018Z,18.50
2018-06-02T05:33:39.865Z,18.60
2018-06-02T05:36:08.730Z,18.70
2018-06-02T05:38:37.928Z,18.80
2018-06-02T05:41:07.598Z,19.00
2018-06-02T05:43:36.442Z,19.00
2018-06-02T05:46:06.051Z,19.20
2018-06-02T05:48:35.628Z,19.30
2018-06-02T05:51:04.491Z,19.30
2018-06-02T05:53:33.324Z,19.40
2018-06-02T05:56:02.140Z,19.50
2018-06-02T05:58:31.838Z,19.70
2018-06-02T06:01:00.662Z,19.70
2018-06-02T06:03:30.320Z,19.90
2018-06-02T06:05:59.214Z,19.90
2018-06-02T06:08:28.517Z,20.00
2018-06-02T06:10:57.399Z,20.10
2018-06-02T06:13:26.293Z,20.20
2018-06-02T06:15:55.230Z,20.40
2018-06-02T06:18:24.113Z,20.50
2018-06-02T06:20:53.000Z,20.60
2018-06-02T06:23:21.857Z,20.70
2018-06-02T06:25:50.722Z,20.80
2018-06-02T06:28:20.326Z,21.10
2018-06-02T06:30:49.143Z,21.00
2018-06-02T06:33:17.985Z,21.20
2018-06-02T06:35:46.826Z,21.30
2018-06-02T06:38:16.122Z,21.40
2018-06-02T06:40:45.712Z,21.70
2018-06-02T06:43:14.575Z,21.60
2018-06-02T06:45:43.466Z,21.80
2018-06-02T06:48:12.383Z,21.90
2018-06-02T06:50:41.227Z,22.00
2018-06-02T06:53:10.207Z,22.10
2018-06-02T06:55:39.792Z,22.30
2018-06-02T06:58:09.102Z,22.30
2018-06-02T07:00:37.976Z,22.40
2018-06-02T07:03:06.808Z,22.50
2018-06-02T07:05:35.690Z,22.60
2018-06-02T07:08:04.601Z,22.70
2018-06-02T07:10:34.220Z,22.80
2018-06-02T07:13:03.905Z,22.90
2018-06-02T07:15:32.812Z,22.90
2018-06-02T07:18:02.496Z,23.10
2018-06-02T07:20:31.507Z,23.10
2018-06-02T07:23:00.361Z,23.20
2018-06-02T07:25:29.230Z,23.30
2018-06-02T07:27:58.904Z,23.50
2018-06-02T07:30:27.717Z,23.50
2018-06-02T07:32:56.582Z,23.60
2018-06-02T07:35:25.467Z,23.70
2018-06-02T07:37:54.309Z,23.90
2018-06-02T07:40:23.985Z,24.10
2018-06-02T07:42:52.850Z,24.10
2018-06-02T07:45:21.682Z,24.20
2018-06-02T07:47:51.119Z,24.30
2018-06-02T07:50:20.375Z,24.40
2018-06-02T07:52:49.604Z,24.50
2018-06-02T07:55:18.574Z,24.60
2018-06-02T07:57:47.483Z,24.70
2018-06-02T08:00:17.210Z,24.80
2018-06-02T08:02:46.085Z,24.80
2018-06-02T08:05:15.045Z,24.80
2018-06-02T08:07:44.010Z,24.90
2018-06-02T08:10:12.822Z,25.00
2018-06-02T08:12:42.467Z,25.20
2018-06-02T08:15:11.458Z,25.20
2018-06-02T08:17:40.360Z,25.30
2018-06-02T08:20:09.251Z,25.40
2018-06-02T08:22:38.239Z,25.50
2018-06-02T08:25:07.152Z,25.60
2018-06-02T08:27:36.085Z,25.70
2018-06-02T08:30:05.043Z,25.80
2018-06-02T08:32:33.918Z,26.00
2018-06-02T08:35:02.759Z,26.10
2018-06-02T08:37:32.556Z,26.30
2018-06-02T08:40:01.845Z,26.30
2018-06-02T08:42:30.810Z,26.30
2018-06-02T08:45:00.615Z,26.50
2018-06-02T08:47:30.290Z,26.50
2018-06-02T08:49:59.922Z,26.60
2018-06-02T08:52:28.807Z,26.60
2018-06-02T08:54:58.022Z,26.70
2018-06-02T08:57:27.278Z,26.70
2018-06-02T08:59:56.164Z,26.80
2018-06-02T09:02:25.003Z,27.00
2018-06-02T09:04:54.274Z,27.10
2018-06-02T09:07:23.161Z,27.30
2018-06-02T09:09:52.011Z,27.40
2018-06-02T09:12:20.875Z,27.60
2018-06-02T09:14:50.159Z,27.60
2018-06-02T09:17:19.062Z,27.70
2018-06-02T09:19:47.933Z,27.90
2018-06-02T09:22:16.833Z,28.00
2018-06-02T09:24:46.952Z,28.20
2018-06-02T09:27:16.087Z,28.20
2018-06-02T09:29:45.018Z,28.30
2018-06-02T09:32:14.916Z,28.40
2018-06-02T09:34:44.023Z,28.40
2018-06-02T09:37:13.805Z,28.50
2018-06-02T09:39:42.897Z,28.50
2018-06-02T09:42:11.791Z,28.50
2018-06-02T09:44:40.727Z,28.60
2018-06-02T09:47:10.289Z,28.60
2018-06-02T09:49:39.151Z,28.60
2018-06-02T09:52:08.874Z,28.80
2018-06-02T09:54:38.467Z,28.90
2018-06-02T09:57:08.064Z,28.90
2018-06-02T09:59:37.989Z,29.00
2018-06-02T10:02:07.516Z,28.90
2018-06-02T10:04:37.297Z,29.00
2018-06-02T10:07:06.425Z,29.00
2018-06-02T10:09:35.606Z,29.20
2018-06-02T10:12:04.744Z,29.30
2018-06-02T10:14:34.039Z,29.40
2018-06-02T10:17:02.959Z,29.60
2018-06-02T10:19:31.942Z,29.80
2018-06-02T10:22:01.817Z,29.90
2018-06-02T10:24:31.115Z,29.90
2018-06-02T10:27:00.986Z,30.00
2018-06-02T10:29:30.638Z,30.10
2018-06-02T10:31:59.450Z,30.00
2018-06-02T10:34:28.295Z,30.10
2018-06-02T10:36:57.513Z,30.10
2018-06-02T10:39:26.368Z,30.20
2018-06-02T10:41:55.530Z,30.10
2018-06-02T10:44:24.450Z,30.10
2018-06-02T10:46:54.170Z,30.30
2018-06-02T10:49:23.072Z,30.30
2018-06-02T10:51:52.018Z,30.50
2018-06-02T10:54:20.904Z,30.60
2018-06-02T10:56:49.791Z,30.80
2018-06-02T10:59:18.650Z,30.90
2018-06-02T11:01:47.792Z,31.00
2018-06-02T11:04:16.786Z,31.20
2018-06-02T11:06:45.737Z,31.40
2018-06-02T11:09:14.656Z,31.50
2018-06-02T11:11:44.413Z,31.50
2018-06-02T11:14:13.454Z,31.40
2018-06-02T11:16:43.151Z,31.40
2018-06-02T11:19:12.077Z,31.30
2018-06-02T11:21:41.721Z,31.30
2018-06-02T11:24:10.654Z,31.30
2018-06-02T11:26:39.595Z,31.30
2018-06-02T11:29:08.535Z,31.40
2018-06-02T11:31:37.511Z,31.50
2018-06-02T11:34:06.481Z,31.80
2018-06-02T11:36:35.691Z,31.80
2018-06-02T11:39:05.801Z,31.90
2018-06-02T11:41:35.468Z,32.10
2018-06-02T11:44:05.545Z,32.20
2018-06-02T11:46:34.442Z,32.10
2018-06-02T11:49:05.344Z,32.20
2018-06-02T11:51:34.309Z,32.20
2018-06-02T11:54:03.199Z,32.00
2018-06-02T11:56:32.229Z,31.90
2018-06-02T11:59:01.095Z,31.90
2018-06-02T12:01:29.930Z,32.10
2018-06-02T12:03:58.782Z,32.30
2018-06-02T12:06:27.623Z,32.50
2018-06-02T12:08:56.995Z,32.80
2018-06-02T12:11:25.928Z,33.00
2018-06-02T12:13:55.159Z,33.10
2018-06-02T12:16:24.124Z,33.20
2018-06-02T12:18:53.211Z,33.20
2018-06-02T12:21:23.018Z,33.10
2018-06-02T12:23:51.983Z,33.10
2018-06-02T12:26:21.412Z,33.00
2018-06-02T12:28:50.250Z,33.00
2018-06-02T12:31:19.476Z,33.10
2018-06-02T12:33:48.367Z,33.10
2018-06-02T12:36:17.528Z,33.30
2018-06-02T12:38:46.809Z,33.50
2018-06-02T12:41:15.676Z,33.70
2018-06-02T12:43:44.486Z,33.90
2018-06-02T12:46:14.486Z,34.20
2018-06-02T12:48:43.408Z,34.20
2018-06-02T12:51:13.373Z,34.40
2018-06-02T12:53:42.962Z,34.20
2018-06-02T12:56:12.854Z,34.20
2018-06-02T12:58:42.496Z,33.80
2018-06-02T13:01:11.346Z,33.80
2018-06-02T13:03:40.198Z,33.70
2018-06-02T13:06:10.014Z,33.60
2018-06-02T13:08:39.662Z,33.30
2018-06-02T13:11:08.578Z,33.30
2018-06-02T13:13:38.200Z,33.40
2018-06-02T13:16:07.069Z,33.30
2018-06-02T13:18:35.958Z,33.40
2018-06-02T13:21:04.820Z,33.50
2018-06-02T13:23:34.396Z,33.90
2018-06-02T13:26:04.415Z,33.90
2018-06-02T13:28:33.447Z,34.10
2018-06-02T13:31:05.508Z,34.30
2018-06-02T13:33:36.086Z,34.10
2018-06-02T13:36:05.148Z,34.10
2018-06-02T13:38:36.191Z,33.90
2018-06-02T13:41:05.809Z,33.60
2018-06-02T13:43:35.430Z,33.60
2018-06-02T13:46:05.668Z,33.60
2018-06-02T13:48:34.483Z,33.60
2018-06-02T13:51:03.547Z,33.60
2018-06-02T13:53:32.639Z,33.70
2018-06-02T13:56:02.243Z,33.80
2018-06-02T13:58:31.892Z,33.70
2018-06-02T14:01:00.729Z,33.70
2018-06-02T14:03:29.605Z,33.60
2018-06-02T14:05:58.862Z,33.60
2018-06-02T14:08:28.458Z,33.30
2018-06-02T14:10:58.049Z,33.00
2018-06-02T14:13:26.923Z,33.10
2018-06-02T14:15:56.238Z,33.00
2018-06-02T14:18:25.280Z,33.00
2018-06-02T14:20:55.485Z,32.90
2018-06-02T14:23:25.699Z,33.00
2018-06-02T14:25:54.618Z,33.00
2018-06-02T14:28:23.703Z,33.10
2018-06-02T14:30:52.591Z,33.00
2018-06-02T14:33:21.450Z,32.90
2018-06-02T14:35:50.781Z,32.90
2018-06-02T14:38:19.606Z,32.90
2018-06-02T14:40:49.210Z,33.10
2018-06-02T14:43:18.806Z,33.20
2018-06-02T14:45:47.629Z,33.20
2018-06-02T14:48:16.464Z,33.30
2018-06-02T14:50:45.334Z,33.60
2018-06-02T14:53:14.206Z,33.60
2018-06-02T14:55:43.030Z,33.90
2018-06-02T14:58:11.921Z,34.00
2018-06-02T15:00:40.794Z,34.00
2018-06-02T15:03:10.370Z,34.10
2018-06-02T15:05:39.222Z,34.10
2018-06-02T15:08:09.922Z,34.00
2018-06-02T15:10:39.542Z,33.90
2018-06-02T15:13:09.350Z,33.90
2018-06-02T15:15:38.581Z,33.90
2018-06-02T15:18:08.782Z,33.60
2018-06-02T15:20:38.359Z,33.60
2018-06-02T15:23:07.217Z,33.60
2018-06-02T15:25:36.353Z,33.60
2018-06-02T15:28:05.599Z,33.60
2018-06-02T15:30:34.443Z,33.60
2018-06-02T15:33:03.694Z,33.50
2018-06-02T15:35:33.327Z,33.40
2018-06-02T15:38:02.195Z,33.30
2018-06-02T15:40:31.464Z,33.50
2018-06-02T15:43:00.350Z,33.60
2018-06-02T15:45:30.123Z,33.60
2018-06-02T15:47:58.992Z,33.60
2018-06-02T15:50:28.037Z,33.60
2018-06-02T15:52:56.858Z,33.50
2018-06-02T15:55:25.714Z,33.50
2018-06-02T15:57:54.563Z,33.40
2018-06-02T16:00:23.416Z,33.30
2018-06-02T16:02:52.290Z,33.30
2018-06-02T16:05:21.426Z,33.30
2018-06-02T16:07:51.450Z,33.50
2018-06-02T16:10:20.333Z,33.50
2018-06-02T16:12:49.196Z,33.50
2018-06-02T16:15:18.058Z,33.40
2018-06-02T16:17:48.035Z,33.40
2018-06-02T16:20:16.867Z,33.40
2018-06-02T16:22:45.698Z,33.40
2018-06-02T16:25:14.578Z,33.30
2018-06-02T16:27:44.158Z,33.20
2018-06-02T16:30:13.017Z,33.10
2018-06-02T16:32:41.874Z,33.10
2018-06-02T16:35:11.456Z,33.30
2018-06-02T16:37:41.848Z,33.30
2018-06-02T16:40:10.668Z,33.30
2018-06-02T16:42:40.298Z,33.40
2018-06-02T16:45:09.169Z,33.30
2018-06-02T16:47:38.018Z,33.30
2018-06-02T16:50:07.606Z,33.00
2018-06-02T16:52:36.446Z,33.00
2018-06-02T16:55:05.347Z,32.80
2018-06-02T16:57:34.169Z,32.80
2018-06-02T17:00:03.010Z,32.70
2018-06-02T17:02:31.851Z,32.60
2018-06-02T17:05:00.666Z,32.60
2018-06-02T17:07:29.549Z,32.60
2018-06-02T17:09:58.401Z,32.60
2018-06-02T17:12:27.230Z,32.70
2018-06-02T17:14:56.435Z,32.70
2018-06-02T17:17:25.266Z,32.70
2018-06-02T17:19:54.914Z,32.70
2018-06-02T17:22:23.774Z,32.80
2018-06-02T17:24:53.358Z,32.50
2018-06-02T17:27:22.187Z,32.50
2018-06-02T17:29:51.059Z,32.50
2018-06-02T17:32:21.019Z,32.40
2018-06-02T17:34:49.926Z,32.40
2018-06-02T17:37:18.770Z,32.30
2018-06-02T17:39:47.586Z,32.30
2018-06-02T17:42:16.406Z,32.20
2018-06-02T17:44:45.245Z,32.20
2018-06-02T17:47:14.066Z,32.20
2018-06-02T17:49:42.886Z,32.10
2018-06-02T17:52:11.792Z,32.10
2018-06-02T17:54:41.379Z,31.80
2018-06-02T17:57:10.202Z,31.80
2018-06-02T17:59:40.070Z,31.60
2018-06-02T18:02:09.303Z,31.50
2018-06-02T18:04:38.257Z,31.50
2018-06-02T18:07:07.871Z,31.40
2018-06-02T18:09:37.472Z,31.30
2018-06-02T18:12:07.063Z,31.20
2018-06-02T18:14:35.945Z,31.20
2018-06-02T18:17:04.782Z,31.20
2018-06-02T18:19:34.393Z,31.10
2018-06-02T18:22:03.462Z,31.00
2018-06-02T18:24:32.658Z,31.00
2018-06-02T18:27:01.494Z,31.00
2018-06-02T18:29:31.126Z,30.90
2018-06-02T18:32:00.202Z,30.90
2018-06-02T18:34:29.407Z,30.80
2018-06-02T18:36:59.052Z,30.50
2018-06-02T18:39:27.904Z,30.50
2018-06-02T18:41:57.493Z,30.30
2018-06-02T18:44:26.625Z,30.30
2018-06-02T18:46:55.508Z,30.20
2018-06-02T18:49:24.334Z,30.00
2018-06-02T18:51:53.789Z,29.80
2018-06-02T18:54:26.050Z,29.50
2018-06-02T18:56:54.926Z,29.50
2018-06-02T18:59:23.743Z,29.40
2018-06-02T19:01:52.559Z,29.20
2018-06-02T19:04:21.402Z,29.10
2018-06-02T19:06:50.226Z,28.90
2018-06-02T19:09:20.082Z,28.80
2018-06-02T19:11:49.739Z,28.40
2018-06-02T19:14:18.883Z,28.40
2018-06-02T19:16:49.831Z,28.10
2018-06-02T19:19:22.309Z,28.00
2018-06-02T19:21:51.918Z,27.90
2018-06-02T19:24:21.838Z,27.80
2018-06-02T19:26:53.891Z,27.60
2018-06-02T19:29:24.220Z,27.60
2018-06-02T19:31:53.435Z,27.50
2018-06-02T19:34:23.247Z,27.20
2018-06-02T19:36:53.165Z,27.10
2018-06-02T19:39:24.782Z,27.00
2018-06-02T19:41:54.644Z,26.90
2018-06-02T19:44:25.300Z,26.70
2018-06-02T19:46:56.122Z,26.70
2018-06-02T19:49:26.757Z,26.40
2018-06-02T19:51:57.942Z,26.30
2018-06-02T19:54:26.789Z,26.20
2018-06-02T19:56:59.882Z,26.00
2018-06-02T19:59:31.398Z,25.90
2018-06-02T20:02:01.662Z,25.90
2018-06-02T20:04:33.194Z,25.60
2018-06-02T20:07:04.654Z,25.50
2018-06-02T20:09:35.325Z,25.40
2018-06-02T20:12:06.305Z,25.40
2018-06-02T20:14:36.783Z,25.30
2018-06-02T20:17:07.999Z,25.10
2018-06-02T20:19:37.210Z,25.10
2018-06-02T20:22:08.839Z,24.90
2018-06-02T20:24:39.625Z,24.90
2018-06-02T20:27:09.646Z,24.70
2018-06-02T20:29:39.435Z,24.60
2018-06-02T20:32:10.038Z,24.60
2018-06-02T20:34:40.842Z,24.60
2018-06-02T20:37:11.498Z,24.40
2018-06-02T20:39:40.354Z,24.30
2018-06-02T20:42:13.044Z,24.20
2018-06-02T20:44:43.763Z,24.10
2018-06-02T20:47:14.293Z,24.00
2018-06-02T20:49:43.115Z,23.90
2018-06-02T20:52:12.380Z,23.90
2018-06-02T20:54:43.899Z,23.80
2018-06-02T20:57:14.601Z,23.70
2018-06-02T20:59:47.026Z,23.50
2018-06-02T21:02:17.879Z,23.50
2018-06-02T21:04:49.130Z,23.40
2018-06-02T21:07:18.265Z,23.30
2018-06-02T21:09:48.534Z,23.20
2018-06-02T21:12:19.326Z,23.20
2018-06-02T21:14:49.999Z,23.10
2018-06-02T21:17:20.046Z,23.10
2018-06-02T21:19:50.836Z,23.00
2018-06-02T21:22:22.510Z,22.90
2018-06-02T21:24:51.587Z,22.90
2018-06-02T21:27:23.541Z,22.70
2018-06-02T21:29:55.786Z,22.60
2018-06-02T21:32:25.842Z,22.60
2018-06-02T21:34:56.638Z,22.40
2018-06-02T21:37:26.620Z,22.40
2018-06-02T21:39:56.825Z,22.30
2018-06-02T21:42:26.745Z,22.00
2018-06-02T21:44:55.982Z,22.00
2018-06-02T21:47:25.271Z,21.90
2018-06-02T21:49:55.376Z,21.90
2018-06-02T21:52:26.047Z,21.80
2018-06-02T21:54:55.196Z,21.70
2018-06-02T21:57:24.302Z,21.70
2018-06-02T21:59:53.480Z,21.60
2018-06-02T22:02:22.534Z,21.50
2018-06-02T22:04:51.694Z,21.50
2018-06-02T22:07:21.087Z,21.50
2018-06-02T22:09:49.958Z,21.40
2018-06-02T22:12:18.842Z,21.40
2018-06-02T22:14:47.967Z,21.30
2018-06-02T22:17:16.838Z,21.30
2018-06-02T22:19:46.018Z,21.40
2018-06-02T22:22:16.402Z,21.40
2018-06-02T22:24:45.738Z,21.30
2018-06-02T22:27:15.907Z,21.30
2018-06-02T22:29:46.213Z,21.30
2018-06-02T22:32:15.674Z,21.30
2018-06-02T22:34:46.001Z,21.30
2018-06-02T22:37:14.830Z,21.20
2018-06-02T22:39:45.422Z,21.10
2018-06-02T22:42:14.323Z,21.10
2018-06-02T22:44:44.168Z,21.10
2018-06-02T22:47:13.938Z,21.00
2018-06-02T22:49:42.774Z,21.00
2018-06-02T22:52:13.618Z,20.90
2018-06-02T22:54:44.963Z,20.90
2018-06-02T23:00:27.778Z,20.90
2018-06-02T23:05:33.726Z,20.90
2018-06-02T23:08:04.638Z,20.90
2018-06-02T23:15:36.662Z,20.70
2018-06-02T23:18:07.942Z,20.70
2018-06-02T23:20:38.626Z,20.60
2018-06-02T23:23:09.206Z,20.60
2018-06-02T23:25:42.269Z,20.50
2018-06-02T23:28:14.089Z,20.50
2018-06-02T23:35:48.218Z,20.40
2018-06-02T23:38:19.889Z,20.30
2018-06-02T23:43:22.219Z,20.30
2018-06-02T23:45:52.882Z,20.30
2018-06-02T23:48:23.718Z,20.30
2018-06-02T23:50:54.814Z,20.30
2018-06-02T23:53:26.014Z,20.30
2018-06-02T23:55:56.978Z,20.20
2018-06-02T23:58:28.094Z,20.20
